sensor_id;sensor_type;location;lat;lon;timestamp;pressure;altitude;pressure_sealevel;temperature;humidity
17230;BME280;8731;50.364;8.958;2024-03-02T00:00:37;98972.34;;;6.34;94.45
17230;BME280;8731;50.364;8.958;2024-03-02T00:05:00;98969.91;;;6.25;95.02
17230;BME280;8731;50.364;8.958;2024-03-02T00:09:23;98979.38;;;6.28;94.26
17230;BME280;8731;50.364;8.958;2024-03-02T00:13:45;98968.72;;;6.22;94.86
17230;BME280;8731;50.364;8.958;2024-03-02T00:18:10;98966.69;;;6.18;94.82
17230;BME280;8731;50.364;8.958;2024-03-02T00:22:35;98970.41;;;6.12;94.25
17230;BME280;8731;50.364;8.958;2024-03-02T00:26:58;98969.88;;;6.06;94.94
17230;BME280;8731;50.364;8.958;2024-03-02T00:31:20;98966.59;;;6.07;93.98
17230;BME280;8731;50.364;8.958;2024-03-02T00:35:45;98968.66;;;5.84;95.27
17230;BME280;8731;50.364;8.958;2024-03-02T00:40:08;98968.78;;;5.94;94.72
17230;BME280;8731;50.364;8.958;2024-03-02T00:44:33;98966.53;;;5.89;93.66
17230;BME280;8731;50.364;8.958;2024-03-02T00:48:58;98969.41;;;5.92;94.06
17230;BME280;8731;50.364;8.958;2024-03-02T00:53:25;98954.16;;;5.73;94.94
17230;BME280;8731;50.364;8.958;2024-03-02T00:57:48;98947.91;;;5.78;95.86
17230;BME280;8731;50.364;8.958;2024-03-02T01:02:10;98944.34;;;5.76;94.52
17230;BME280;8731;50.364;8.958;2024-03-02T01:06:32;98943.66;;;5.68;94.96
17230;BME280;8731;50.364;8.958;2024-03-02T01:10:56;98941.72;;;5.66;96.64
17230;BME280;8731;50.364;8.958;2024-03-02T01:15:18;98941.84;;;5.67;95.58
17230;BME280;8731;50.364;8.958;2024-03-02T01:19:41;98936.84;;;5.59;96.82
17230;BME280;8731;50.364;8.958;2024-03-02T01:24:04;98931.19;;;5.61;97.90
17230;BME280;8731;50.364;8.958;2024-03-02T01:28:28;98931.81;;;5.59;97.71
17230;BME280;8731;50.364;8.958;2024-03-02T01:32:50;98936.38;;;5.63;97.17
17230;BME280;8731;50.364;8.958;2024-03-02T01:37:12;98926.63;;;5.57;97.15
17230;BME280;8731;50.364;8.958;2024-03-02T01:41:34;98926.47;;;5.55;98.06
17230;BME280;8731;50.364;8.958;2024-03-02T01:45:58;98933.03;;;5.53;98.79
17230;BME280;8731;50.364;8.958;2024-03-02T01:50:25;98937.06;;;5.51;98.99
17230;BME280;8731;50.364;8.958;2024-03-02T01:54:48;98932.91;;;5.52;97.94
17230;BME280;8731;50.364;8.958;2024-03-02T01:59:11;98939.84;;;5.54;98.92
17230;BME280;8731;50.364;8.958;2024-03-02T02:03:36;98930.84;;;5.48;99.72
17230;BME280;8731;50.364;8.958;2024-03-02T02:07:58;98918.97;;;5.47;100.00
17230;BME280;8731;50.364;8.958;2024-03-02T02:12:22;98916.44;;;5.47;100.00
17230;BME280;8731;50.364;8.958;2024-03-02T02:16:44;98902.28;;;5.30;100.00
17230;BME280;8731;50.364;8.958;2024-03-02T02:21:08;98894.22;;;5.34;100.00
17230;BME280;8731;50.364;8.958;2024-03-02T02:25:31;98898.59;;;5.27;100.00
17230;BME280;8731;50.364;8.958;2024-03-02T02:29:54;98888.03;;;5.31;100.00
17230;BME280;8731;50.364;8.958;2024-03-02T02:34:16;98886.94;;;5.37;100.00
17230;BME280;8731;50.364;8.958;2024-03-02T02:38:42;98890.34;;;5.38;100.00
17230;BME280;8731;50.364;8.958;2024-03-02T02:43:09;98876.09;;;5.38;100.00
17230;BME280;8731;50.364;8.958;2024-03-02T02:47:31;98876.09;;;5.38;100.00
17230;BME280;8731;50.364;8.958;2024-03-02T02:51:55;98861.69;;;5.37;100.00
17230;BME280;8731;50.364;8.958;2024-03-02T02:56:17;98864.63;;;5.42;100.00
17230;BME280;8731;50.364;8.958;2024-03-02T03:00:41;98872.97;;;5.41;100.00
17230;BME280;8731;50.364;8.958;2024-03-02T03:05:04;98873.97;;;5.43;100.00
17230;BME280;8731;50.364;8.958;2024-03-02T03:09:27;98869.81;;;5.43;100.00
17230;BME280;8731;50.364;8.958;2024-03-02T03:13:49;98866.28;;;5.41;100.00
17230;BME280;8731;50.364;8.958;2024-03-02T03:18:13;98863.88;;;5.43;100.00
17230;BME280;8731;50.364;8.958;2024-03-02T03:22:35;98870.56;;;5.42;100.00
17230;BME280;8731;50.364;8.958;2024-03-02T03:26:57;98871.53;;;5.34;100.00
17230;BME280;8731;50.364;8.958;2024-03-02T03:31:20;98868.44;;;5.28;100.00
17230;BME280;8731;50.364;8.958;2024-03-02T03:35:43;98859.66;;;5.33;100.00
17230;BME280;8731;50.364;8.958;2024-03-02T03:40:06;98865.16;;;5.29;100.00
17230;BME280;8731;50.364;8.958;2024-03-02T03:44:31;98867.41;;;5.26;100.00
17230;BME280;8731;50.364;8.958;2024-03-02T03:48:53;98870.22;;;5.29;100.00
17230;BME280;8731;50.364;8.958;2024-03-02T03:53:18;98873.81;;;5.22;100.00
17230;BME280;8731;50.364;8.958;2024-03-02T03:57:40;98876.03;;;5.19;100.00
17230;BME280;8731;50.364;8.958;2024-03-02T04:02:03;98873.22;;;5.25;100.00
17230;BME280;8731;50.364;8.958;2024-03-02T04:06:25;98884.81;;;5.23;100.00
17230;BME280;8731;50.364;8.958;2024-03-02T04:10:49;98874.25;;;5.18;100.00
17230;BME280;8731;50.364;8.958;2024-03-02T04:15:11;98869.69;;;5.14;100.00
17230;BME280;8731;50.364;8.958;2024-03-02T04:19:33;98867.09;;;5.04;100.00
17230;BME280;8731;50.364;8.958;2024-03-02T04:23:56;98880.59;;;5.05;100.00
17230;BME280;8731;50.364;8.958;2024-03-02T04:28:20;98879.22;;;5.08;100.00
17230;BME280;8731;50.364;8.958;2024-03-02T04:32:43;98888.00;;;5.03;100.00
17230;BME280;8731;50.364;8.958;2024-03-02T04:37:06;98879.88;;;4.88;100.00
17230;BME280;8731;50.364;8.958;2024-03-02T04:41:29;98887.59;;;4.99;100.00
17230;BME280;8731;50.364;8.958;2024-03-02T04:45:52;98877.78;;;4.93;100.00
17230;BME280;8731;50.364;8.958;2024-03-02T04:50:15;98875.41;;;4.94;100.00
17230;BME280;8731;50.364;8.958;2024-03-02T04:54:37;98882.22;;;4.96;100.00
17230;BME280;8731;50.364;8.958;2024-03-02T04:59:13;98885.50;;;4.94;100.00
17230;BME280;8731;50.364;8.958;2024-03-02T05:03:37;98882.97;;;4.94;100.00
17230;BME280;8731;50.364;8.958;2024-03-02T05:07:59;98879.59;;;4.85;100.00
17230;BME280;8731;50.364;8.958;2024-03-02T05:12:22;98878.88;;;4.86;100.00
17230;BME280;8731;50.364;8.958;2024-03-02T05:17:07;98881.09;;;4.83;100.00
17230;BME280;8731;50.364;8.958;2024-03-02T05:21:31;98881.38;;;4.86;100.00
17230;BME280;8731;50.364;8.958;2024-03-02T05:25:53;98891.94;;;4.82;100.00
17230;BME280;8731;50.364;8.958;2024-03-02T05:30:16;98886.19;;;4.66;100.00
17230;BME280;8731;50.364;8.958;2024-03-02T05:34:38;98890.03;;;4.80;100.00
17230;BME280;8731;50.364;8.958;2024-03-02T05:39:02;98891.03;;;4.82;100.00
17230;BME280;8731;50.364;8.958;2024-03-02T05:43:25;98890.03;;;4.71;100.00
17230;BME280;8731;50.364;8.958;2024-03-02T05:47:47;98896.56;;;4.78;100.00
17230;BME280;8731;50.364;8.958;2024-03-02T05:52:10;98895.53;;;4.76;100.00
17230;BME280;8731;50.364;8.958;2024-03-02T05:56:34;98905.28;;;4.73;100.00
17230;BME280;8731;50.364;8.958;2024-03-02T06:00:57;98914.06;;;4.76;100.00
17230;BME280;8731;50.364;8.958;2024-03-02T06:05:19;98918.97;;;4.75;100.00
17230;BME280;8731;50.364;8.958;2024-03-02T06:09:41;98925.63;;;4.66;100.00
17230;BME280;8731;50.364;8.958;2024-03-02T06:14:07;98935.44;;;4.62;100.00
17230;BME280;8731;50.364;8.958;2024-03-02T06:18:29;98930.06;;;4.68;100.00
17230;BME280;8731;50.364;8.958;2024-03-02T06:22:53;98940.00;;;4.75;100.00
17230;BME280;8731;50.364;8.958;2024-03-02T06:27:16;98948.00;;;4.80;100.00
17230;BME280;8731;50.364;8.958;2024-03-02T06:31:39;98949.94;;;4.82;100.00
17230;BME280;8731;50.364;8.958;2024-03-02T06:36:02;98950.06;;;4.84;100.00
17230;BME280;8731;50.364;8.958;2024-03-02T06:40:28;98951.81;;;4.93;100.00
17230;BME280;8731;50.364;8.958;2024-03-02T06:44:50;98949.88;;;5.00;100.00
17230;BME280;8731;50.364;8.958;2024-03-02T06:49:15;98956.25;;;5.05;100.00
17230;BME280;8731;50.364;8.958;2024-03-02T06:53:38;98952.34;;;5.17;100.00
17230;BME280;8731;50.364;8.958;2024-03-02T06:58:00;98958.72;;;5.22;100.00
17230;BME280;8731;50.364;8.958;2024-03-02T07:02:23;98959.00;;;5.25;100.00
17230;BME280;8731;50.364;8.958;2024-03-02T07:06:48;98960.69;;;5.43;100.00
17230;BME280;8731;50.364;8.958;2024-03-02T07:11:11;98967.34;;;5.51;100.00
17230;BME280;8731;50.364;8.958;2024-03-02T07:15:33;98974.25;;;5.63;100.00
17230;BME280;8731;50.364;8.958;2024-03-02T07:20:14;98972.13;;;5.76;100.00
17230;BME280;8731;50.364;8.958;2024-03-02T07:24:42;98971.03;;;5.82;100.00
17230;BME280;8731;50.364;8.958;2024-03-02T07:29:06;98978.56;;;5.91;100.00
17230;BME280;8731;50.364;8.958;2024-03-02T07:33:28;98979.09;;;6.06;100.00
17230;BME280;8731;50.364;8.958;2024-03-02T07:37:50;98977.19;;;6.22;100.00
17230;BME280;8731;50.364;8.958;2024-03-02T07:42:14;98972.91;;;6.40;100.00
17230;BME280;8731;50.364;8.958;2024-03-02T07:46:37;98974.50;;;6.58;100.00
17230;BME280;8731;50.364;8.958;2024-03-02T07:50:59;98979.91;;;6.71;100.00
17230;BME280;8731;50.364;8.958;2024-03-02T07:55:22;98985.06;;;6.92;100.00
17230;BME280;8731;50.364;8.958;2024-03-02T07:59:47;98989.53;;;7.04;100.00
17230;BME280;8731;50.364;8.958;2024-03-02T08:04:09;98990.63;;;7.17;100.00
17230;BME280;8731;50.364;8.958;2024-03-02T08:08:32;98993.16;;;7.27;100.00
17230;BME280;8731;50.364;8.958;2024-03-02T08:12:54;98987.72;;;7.61;100.00
17230;BME280;8731;50.364;8.958;2024-03-02T08:17:18;98987.88;;;7.93;100.00
17230;BME280;8731;50.364;8.958;2024-03-02T08:21:42;98978.88;;;8.07;99.62
17230;BME280;8731;50.364;8.958;2024-03-02T08:26:05;98985.41;;;8.66;98.09
17230;BME280;8731;50.364;8.958;2024-03-02T08:30:27;98986.28;;;8.77;95.14
17230;BME280;8731;50.364;8.958;2024-03-02T08:34:51;98994.28;;;9.13;93.29
17230;BME280;8731;50.364;8.958;2024-03-02T08:39:14;98984.25;;;9.80;91.75
17230;BME280;8731;50.364;8.958;2024-03-02T08:43:37;98979.13;;;10.24;89.33
17230;BME280;8731;50.364;8.958;2024-03-02T08:48:00;98984.72;;;10.89;86.87
17230;BME280;8731;50.364;8.958;2024-03-02T08:52:24;98987.38;;;10.67;83.54
17230;BME280;8731;50.364;8.958;2024-03-02T08:56:46;98983.31;;;11.29;82.67
17230;BME280;8731;50.364;8.958;2024-03-02T09:01:10;98982.19;;;12.10;78.03
17230;BME280;8731;50.364;8.958;2024-03-02T09:05:32;98983.16;;;12.90;77.41
17230;BME280;8731;50.364;8.958;2024-03-02T09:09:56;98974.75;;;13.45;76.59
17230;BME280;8731;50.364;8.958;2024-03-02T09:14:19;98981.97;;;14.22;75.03
17230;BME280;8731;50.364;8.958;2024-03-02T09:18:41;98988.91;;;14.09;71.26
17230;BME280;8731;50.364;8.958;2024-03-02T09:23:03;98978.03;;;14.56;70.16
17230;BME280;8731;50.364;8.958;2024-03-02T09:27:27;98975.28;;;14.53;67.28
17230;BME280;8731;50.364;8.958;2024-03-02T09:31:49;98979.53;;;15.44;67.29
17230;BME280;8731;50.364;8.958;2024-03-02T09:36:18;98970.78;;;15.72;66.42
17230;BME280;8731;50.364;8.958;2024-03-02T09:40:42;98967.63;;;15.77;65.38
17230;BME280;8731;50.364;8.958;2024-03-02T09:45:09;98972.06;;;15.49;63.74
17230;BME280;8731;50.364;8.958;2024-03-02T09:49:32;98972.56;;;15.58;62.02
17230;BME280;8731;50.364;8.958;2024-03-02T09:53:55;98970.03;;;14.96;62.81
17230;BME280;8731;50.364;8.958;2024-03-02T09:58:18;98970.66;;;14.92;63.80
17230;BME280;8731;50.364;8.958;2024-03-02T10:02:42;98964.59;;;14.75;61.97
17230;BME280;8731;50.364;8.958;2024-03-02T10:07:12;98972.91;;;13.71;64.02
17230;BME280;8731;50.364;8.958;2024-03-02T10:11:35;98970.63;;;14.46;64.33
17230;BME280;8731;50.364;8.958;2024-03-02T10:16:11;98966.63;;;14.51;64.79
17230;BME280;8731;50.364;8.958;2024-03-02T10:20:36;98954.09;;;14.70;65.51
17230;BME280;8731;50.364;8.958;2024-03-02T10:24:59;98962.09;;;13.75;63.32
17230;BME280;8731;50.364;8.958;2024-03-02T10:29:21;98961.06;;;13.86;64.37
17230;BME280;8731;50.364;8.958;2024-03-02T10:33:44;98953.28;;;13.85;64.67
17230;BME280;8731;50.364;8.958;2024-03-02T10:38:08;98955.41;;;13.77;64.55
17230;BME280;8731;50.364;8.958;2024-03-02T10:42:33;98954.66;;;14.37;67.12
17230;BME280;8731;50.364;8.958;2024-03-02T10:46:58;98958.50;;;13.58;64.60
17230;BME280;8731;50.364;8.958;2024-03-02T10:51:24;98954.03;;;14.11;65.62
17230;BME280;8731;50.364;8.958;2024-03-02T10:55:52;98950.63;;;13.83;64.15
17230;BME280;8731;50.364;8.958;2024-03-02T11:00:24;98951.59;;;13.16;64.20
17230;BME280;8731;50.364;8.958;2024-03-02T11:04:51;98931.09;;;13.98;64.25
17230;BME280;8731;50.364;8.958;2024-03-02T11:09:19;98922.59;;;14.14;64.33
17230;BME280;8731;50.364;8.958;2024-03-02T11:13:49;98928.25;;;14.38;64.17
17230;BME280;8731;50.364;8.958;2024-03-02T11:18:13;98921.63;;;14.12;62.11
17230;BME280;8731;50.364;8.958;2024-03-02T11:22:37;98911.75;;;14.62;62.90
17230;BME280;8731;50.364;8.958;2024-03-02T11:27:00;98911.72;;;15.08;62.04
17230;BME280;8731;50.364;8.958;2024-03-02T11:31:59;98907.41;;;15.07;62.41
17230;BME280;8731;50.364;8.958;2024-03-02T11:36:22;98901.56;;;15.73;61.37
17230;BME280;8731;50.364;8.958;2024-03-02T11:40:45;98901.97;;;15.64;59.33
17230;BME280;8731;50.364;8.958;2024-03-02T11:45:08;98902.84;;;15.65;57.74
17230;BME280;8731;50.364;8.958;2024-03-02T11:49:40;98892.81;;;15.06;54.78
17230;BME280;8731;50.364;8.958;2024-03-02T11:54:06;98888.41;;;15.67;56.94
17230;BME280;8731;50.364;8.958;2024-03-02T11:58:30;98880.88;;;15.86;56.05
17230;BME280;8731;50.364;8.958;2024-03-02T12:03:00;98875.44;;;15.64;56.29
17230;BME280;8731;50.364;8.958;2024-03-02T12:07:25;98870.13;;;16.11;55.03
17230;BME280;8731;50.364;8.958;2024-03-02T12:12:01;98866.56;;;15.91;54.30
17230;BME280;8731;50.364;8.958;2024-03-02T12:16:25;98860.41;;;16.06;54.07
17230;BME280;8731;50.364;8.958;2024-03-02T12:20:48;98854.88;;;16.32;55.90
17230;BME280;8731;50.364;8.958;2024-03-02T12:25:15;98854.41;;;16.05;54.76
17230;BME280;8731;50.364;8.958;2024-03-02T12:29:40;98849.44;;;16.26;53.90
17230;BME280;8731;50.364;8.958;2024-03-02T12:34:04;98842.13;;;16.34;54.61
17230;BME280;8731;50.364;8.958;2024-03-02T12:38:26;98827.59;;;16.70;55.56
17230;BME280;8731;50.364;8.958;2024-03-02T12:42:51;98824.97;;;15.48;52.42
17230;BME280;8731;50.364;8.958;2024-03-02T12:47:14;98816.50;;;16.35;54.26
17230;BME280;8731;50.364;8.958;2024-03-02T12:51:37;98811.44;;;16.19;53.00
17230;BME280;8731;50.364;8.958;2024-03-02T12:56:02;98802.41;;;17.00;52.99
17230;BME280;8731;50.364;8.958;2024-03-02T13:00:28;98794.38;;;17.31;54.31
17230;BME280;8731;50.364;8.958;2024-03-02T13:04:54;98798.53;;;16.90;52.21
17230;BME280;8731;50.364;8.958;2024-03-02T13:09:17;98784.66;;;17.25;51.23
17230;BME280;8731;50.364;8.958;2024-03-02T13:13:40;98789.34;;;16.40;52.32
17230;BME280;8731;50.364;8.958;2024-03-02T13:18:07;98776.09;;;17.05;51.12
17230;BME280;8731;50.364;8.958;2024-03-02T13:22:29;98768.38;;;16.86;50.96
17230;BME280;8731;50.364;8.958;2024-03-02T13:26:51;98763.69;;;16.60;51.92
17230;BME280;8731;50.364;8.958;2024-03-02T13:31:15;98759.69;;;16.29;50.94
17230;BME280;8731;50.364;8.958;2024-03-02T13:35:40;98768.72;;;16.03;52.17
17230;BME280;8731;50.364;8.958;2024-03-02T13:40:03;98758.22;;;16.89;52.64
17230;BME280;8731;50.364;8.958;2024-03-02T13:44:26;98763.41;;;16.71;52.75
17230;BME280;8731;50.364;8.958;2024-03-02T13:48:49;98764.75;;;16.45;52.10
17230;BME280;8731;50.364;8.958;2024-03-02T13:53:13;98749.81;;;16.74;53.25
17230;BME280;8731;50.364;8.958;2024-03-02T13:57:35;98748.66;;;16.32;51.60
17230;BME280;8731;50.364;8.958;2024-03-02T14:01:57;98740.06;;;16.67;52.89
17230;BME280;8731;50.364;8.958;2024-03-02T14:06:20;98727.28;;;16.68;52.72
17230;BME280;8731;50.364;8.958;2024-03-02T14:10:44;98718.59;;;16.29;52.11
17230;BME280;8731;50.364;8.958;2024-03-02T14:15:07;98729.19;;;16.17;51.65
17230;BME280;8731;50.364;8.958;2024-03-02T14:19:30;98727.34;;;16.15;51.67
17230;BME280;8731;50.364;8.958;2024-03-02T14:23:53;98724.09;;;16.37;53.27
17230;BME280;8731;50.364;8.958;2024-03-02T14:28:17;98724.19;;;15.67;52.65
17230;BME280;8731;50.364;8.958;2024-03-02T14:32:40;98719.66;;;15.97;52.69
17230;BME280;8731;50.364;8.958;2024-03-02T14:37:02;98717.91;;;16.14;53.15
17230;BME280;8731;50.364;8.958;2024-03-02T14:41:25;98715.25;;;15.94;53.20
17230;BME280;8731;50.364;8.958;2024-03-02T14:45:49;98719.63;;;15.79;54.50
17230;BME280;8731;50.364;8.958;2024-03-02T14:50:11;98715.97;;;15.74;53.49
17230;BME280;8731;50.364;8.958;2024-03-02T14:54:36;98708.88;;;15.52;54.07
17230;BME280;8731;50.364;8.958;2024-03-02T14:58:59;98698.91;;;15.75;54.68
17230;BME280;8731;50.364;8.958;2024-03-02T15:03:23;98702.88;;;15.86;55.05
17230;BME280;8731;50.364;8.958;2024-03-02T15:07:45;98690.09;;;15.70;54.70
17230;BME280;8731;50.364;8.958;2024-03-02T15:12:07;98690.97;;;15.70;54.75
17230;BME280;8731;50.364;8.958;2024-03-02T15:16:33;98690.84;;;15.67;55.28
17230;BME280;8731;50.364;8.958;2024-03-02T15:20:56;98687.88;;;15.59;54.52
17230;BME280;8731;50.364;8.958;2024-03-02T15:25:19;98680.97;;;15.41;54.18
17230;BME280;8731;50.364;8.958;2024-03-02T15:29:41;98674.56;;;15.67;55.51
17230;BME280;8731;50.364;8.958;2024-03-02T15:34:03;98675.19;;;15.28;54.14
17230;BME280;8731;50.364;8.958;2024-03-02T15:38:30;98680.19;;;15.25;55.02
17230;BME280;8731;50.364;8.958;2024-03-02T15:42:53;98675.09;;;15.09;54.80
17230;BME280;8731;50.364;8.958;2024-03-02T15:47:15;98679.25;;;15.07;55.20
17230;BME280;8731;50.364;8.958;2024-03-02T15:51:38;98678.72;;;14.80;55.49
17230;BME280;8731;50.364;8.958;2024-03-02T15:56:06;98670.09;;;14.78;55.57
17230;BME280;8731;50.364;8.958;2024-03-02T16:00:28;98680.34;;;14.78;56.48
17230;BME280;8731;50.364;8.958;2024-03-02T16:04:53;98676.97;;;14.63;57.31
17230;BME280;8731;50.364;8.958;2024-03-02T16:09:15;98672.72;;;14.63;57.60
17230;BME280;8731;50.364;8.958;2024-03-02T16:13:39;98681.56;;;14.37;58.33
17230;BME280;8731;50.364;8.958;2024-03-02T16:18:01;98671.69;;;14.43;58.95
17230;BME280;8731;50.364;8.958;2024-03-02T16:22:24;98672.84;;;14.34;59.35
17230;BME280;8731;50.364;8.958;2024-03-02T16:26:48;98669.00;;;14.42;59.66
17230;BME280;8731;50.364;8.958;2024-03-02T16:31:12;98675.31;;;14.32;59.84
17230;BME280;8731;50.364;8.958;2024-03-02T16:35:35;98668.84;;;14.23;60.21
17230;BME280;8731;50.364;8.958;2024-03-02T16:40:00;98676.47;;;14.06;60.65
17230;BME280;8731;50.364;8.958;2024-03-02T16:44:22;98675.44;;;14.03;61.93
17230;BME280;8731;50.364;8.958;2024-03-02T16:48:46;98672.91;;;13.88;61.71
17230;BME280;8731;50.364;8.958;2024-03-02T16:53:08;98674.38;;;13.99;61.92
17230;BME280;8731;50.364;8.958;2024-03-02T16:57:31;98674.66;;;13.89;62.53
17230;BME280;8731;50.364;8.958;2024-03-02T17:01:53;98678.94;;;13.74;62.17
17230;BME280;8731;50.364;8.958;2024-03-02T17:06:17;98681.44;;;13.58;61.91
17230;BME280;8731;50.364;8.958;2024-03-02T17:10:39;98686.09;;;13.65;62.20
17230;BME280;8731;50.364;8.958;2024-03-02T17:15:01;98681.94;;;13.67;62.41
17230;BME280;8731;50.364;8.958;2024-03-02T17:19:24;98696.41;;;13.66;62.79
17230;BME280;8731;50.364;8.958;2024-03-02T17:23:48;98696.94;;;13.46;63.25
17230;BME280;8731;50.364;8.958;2024-03-02T17:28:21;98695.34;;;13.48;63.95
17230;BME280;8731;50.364;8.958;2024-03-02T17:32:46;98701.03;;;13.28;63.93
17230;BME280;8731;50.364;8.958;2024-03-02T17:37:08;98698.91;;;13.35;63.86
17230;BME280;8731;50.364;8.958;2024-03-02T17:41:33;98695.47;;;12.92;65.14
17230;BME280;8731;50.364;8.958;2024-03-02T17:45:57;98697.59;;;12.99;65.04
17230;BME280;8731;50.364;8.958;2024-03-02T17:50:21;98699.88;;;12.95;65.26
17230;BME280;8731;50.364;8.958;2024-03-02T17:54:43;98695.31;;;12.61;66.63
17230;BME280;8731;50.364;8.958;2024-03-02T17:59:07;98710.22;;;12.68;65.78
17230;BME280;8731;50.364;8.958;2024-03-02T18:03:30;98699.56;;;12.47;66.43
17230;BME280;8731;50.364;8.958;2024-03-02T18:07:52;98700.97;;;12.42;66.62
17230;BME280;8731;50.364;8.958;2024-03-02T18:12:15;98697.69;;;12.58;66.68
17230;BME280;8731;50.364;8.958;2024-03-02T18:16:40;98699.47;;;12.46;66.62
17230;BME280;8731;50.364;8.958;2024-03-02T18:21:04;98699.03;;;12.38;67.58
17230;BME280;8731;50.364;8.958;2024-03-02T18:25:26;98698.38;;;12.01;68.57
17230;BME280;8731;50.364;8.958;2024-03-02T18:29:49;98695.22;;;12.18;67.79
17230;BME280;8731;50.364;8.958;2024-03-02T18:34:13;98700.94;;;12.01;69.02
17230;BME280;8731;50.364;8.958;2024-03-02T18:38:37;98699.78;;;12.09;68.79
17230;BME280;8731;50.364;8.958;2024-03-02T18:43:00;98696.84;;;11.90;69.93
17230;BME280;8731;50.364;8.958;2024-03-02T18:47:23;98700.38;;;11.79;69.70
17230;BME280;8731;50.364;8.958;2024-03-02T18:51:48;98697.13;;;11.81;69.68
17230;BME280;8731;50.364;8.958;2024-03-02T18:56:10;98692.72;;;11.79;70.49
17230;BME280;8731;50.364;8.958;2024-03-02T19:00:33;98685.25;;;11.68;70.80
17230;BME280;8731;50.364;8.958;2024-03-02T19:04:55;98690.16;;;11.65;71.25
17230;BME280;8731;50.364;8.958;2024-03-02T19:09:19;98684.44;;;11.56;71.46
17230;BME280;8731;50.364;8.958;2024-03-02T19:13:41;98681.41;;;11.49;72.93
17230;BME280;8731;50.364;8.958;2024-03-02T19:18:05;98677.59;;;11.55;72.53
17230;BME280;8731;50.364;8.958;2024-03-02T19:22:27;98670.44;;;11.50;73.28
17230;BME280;8731;50.364;8.958;2024-03-02T19:26:52;98666.63;;;11.43;73.78
17230;BME280;8731;50.364;8.958;2024-03-02T19:31:14;98661.91;;;11.49;73.86
17230;BME280;8731;50.364;8.958;2024-03-02T19:35:37;98660.94;;;11.60;73.02
17230;BME280;8731;50.364;8.958;2024-03-02T19:39:59;98663.50;;;11.60;73.23
17230;BME280;8731;50.364;8.958;2024-03-02T19:44:23;98653.84;;;11.56;72.73
17230;BME280;8731;50.364;8.958;2024-03-02T19:48:51;98654.47;;;11.65;72.23
17230;BME280;8731;50.364;8.958;2024-03-02T19:53:14;98640.13;;;11.54;73.39
17230;BME280;8731;50.364;8.958;2024-03-02T19:57:39;98633.28;;;11.66;72.94
17230;BME280;8731;50.364;8.958;2024-03-02T20:02:06;98632.31;;;11.64;73.14
17230;BME280;8731;50.364;8.958;2024-03-02T20:06:31;98629.16;;;11.68;73.95
17230;BME280;8731;50.364;8.958;2024-03-02T20:10:54;98628.00;;;11.63;73.46
17230;BME280;8731;50.364;8.958;2024-03-02T20:15:16;98613.69;;;11.65;73.56
17230;BME280;8731;50.364;8.958;2024-03-02T20:19:42;98614.56;;;11.40;75.31
17230;BME280;8731;50.364;8.958;2024-03-02T20:24:05;98625.22;;;11.34;75.99
17230;BME280;8731;50.364;8.958;2024-03-02T20:28:28;98627.22;;;11.38;76.98
17230;BME280;8731;50.364;8.958;2024-03-02T20:32:50;98622.28;;;11.28;77.64
17230;BME280;8731;50.364;8.958;2024-03-02T20:37:17;98630.13;;;11.31;77.17
17230;BME280;8731;50.364;8.958;2024-03-02T20:41:44;98632.38;;;11.26;77.03
17230;BME280;8731;50.364;8.958;2024-03-02T20:46:06;98625.25;;;11.21;76.85
17230;BME280;8731;50.364;8.958;2024-03-02T20:50:29;98637.78;;;11.18;77.00
17230;BME280;8731;50.364;8.958;2024-03-02T20:54:53;98628.53;;;11.06;78.16
17230;BME280;8731;50.364;8.958;2024-03-02T20:59:15;98630.50;;;10.97;78.23
17230;BME280;8731;50.364;8.958;2024-03-02T21:03:38;98625.91;;;11.05;77.73
17230;BME280;8731;50.364;8.958;2024-03-02T21:08:00;98629.13;;;11.02;77.36
17230;BME280;8731;50.364;8.958;2024-03-02T21:12:24;98645.13;;;11.13;77.23
17230;BME280;8731;50.364;8.958;2024-03-02T21:16:49;98641.56;;;11.11;76.95
17230;BME280;8731;50.364;8.958;2024-03-02T21:21:12;98646.78;;;11.13;76.67
17230;BME280;8731;50.364;8.958;2024-03-02T21:25:34;98663.06;;;11.15;75.87
17230;BME280;8731;50.364;8.958;2024-03-02T21:29:59;98660.66;;;11.04;77.06
17230;BME280;8731;50.364;8.958;2024-03-02T21:34:21;98668.50;;;11.07;76.40
17230;BME280;8731;50.364;8.958;2024-03-02T21:38:44;98672.41;;;10.89;77.64
17230;BME280;8731;50.364;8.958;2024-03-02T21:43:07;98668.06;;;10.88;77.40
17230;BME280;8731;50.364;8.958;2024-03-02T21:47:32;98662.00;;;10.86;77.80
17230;BME280;8731;50.364;8.958;2024-03-02T21:51:54;98662.88;;;10.87;77.81
17230;BME280;8731;50.364;8.958;2024-03-02T21:56:17;98657.06;;;10.76;77.99
17230;BME280;8731;50.364;8.958;2024-03-02T22:00:39;98644.38;;;10.51;79.54
17230;BME280;8731;50.364;8.958;2024-03-02T22:05:04;98643.09;;;10.58;78.81
17230;BME280;8731;50.364;8.958;2024-03-02T22:09:27;98635.66;;;10.48;79.78
17230;BME280;8731;50.364;8.958;2024-03-02T22:13:50;98637.03;;;10.56;79.45
17230;BME280;8731;50.364;8.958;2024-03-02T22:18:12;98635.47;;;10.58;78.50
17230;BME280;8731;50.364;8.958;2024-03-02T22:22:36;98640.75;;;10.36;79.87
17230;BME280;8731;50.364;8.958;2024-03-02T22:27:00;98640.97;;;10.39;79.83
17230;BME280;8731;50.364;8.958;2024-03-02T22:31:23;98633.28;;;10.26;81.12
17230;BME280;8731;50.364;8.958;2024-03-02T22:35:45;98622.66;;;10.31;80.23
17230;BME280;8731;50.364;8.958;2024-03-02T22:40:10;98612.63;;;10.21;80.37
17230;BME280;8731;50.364;8.958;2024-03-02T22:44:33;98623.63;;;9.97;83.02
17230;BME280;8731;50.364;8.958;2024-03-02T22:48:56;98625.31;;;9.84;84.98
17230;BME280;8731;50.364;8.958;2024-03-02T22:53:18;98612.91;;;9.89;85.07
17230;BME280;8731;50.364;8.958;2024-03-02T22:57:42;98620.22;;;9.96;83.75
17230;BME280;8731;50.364;8.958;2024-03-02T23:02:04;98621.50;;;10.03;83.41
17230;BME280;8731;50.364;8.958;2024-03-02T23:06:27;98636.09;;;10.05;82.04
17230;BME280;8731;50.364;8.958;2024-03-02T23:10:49;98628.47;;;10.05;81.42
17230;BME280;8731;50.364;8.958;2024-03-02T23:15:13;98636.88;;;9.93;81.20
17230;BME280;8731;50.364;8.958;2024-03-02T23:19:36;98637.44;;;9.89;81.33
17230;BME280;8731;50.364;8.958;2024-03-02T23:23:58;98628.19;;;9.77;82.42
17230;BME280;8731;50.364;8.958;2024-03-02T23:28:20;98628.44;;;9.57;85.17
17230;BME280;8731;50.364;8.958;2024-03-02T23:32:44;98621.13;;;9.73;82.52
17230;BME280;8731;50.364;8.958;2024-03-02T23:37:07;98624.34;;;9.59;82.84